createdAt,value
2022-08-31T00:00:42.936Z,3.13
2022-08-31T00:03:28.606Z,3.03
2022-08-31T00:06:00.142Z,3.10
2022-08-31T00:08:30.128Z,2.83
2022-08-31T00:10:59.628Z,2.17
2022-08-31T00:13:30.047Z,2.63
2022-08-31T00:16:00.312Z,2.73
2022-08-31T00:18:29.854Z,2.80
2022-08-31T00:20:58.942Z,2.83
2022-08-31T00:23:27.567Z,2.73
2022-08-31T00:25:56.162Z,3.33
2022-08-31T00:28:24.743Z,2.50
2022-08-31T00:30:53.770Z,3.20
2022-08-31T00:33:24.341Z,3.20
2022-08-31T00:35:52.797Z,3.00
2022-08-31T00:38:23.645Z,2.70
2022-08-31T00:40:52.816Z,2.50
2022-08-31T00:43:43.363Z,3.27
2022-08-31T00:46:15.682Z,2.77
2022-08-31T00:49:03.357Z,2.97
2022-08-31T00:51:39.532Z,3.10
2022-08-31T00:54:12.394Z,2.83
2022-08-31T00:56:44.911Z,2.50
2022-08-31T00:59:15.554Z,2.90
2022-08-31T01:01:44.893Z,3.07
2022-08-31T01:04:16.881Z,2.60
2022-08-31T01:06:48.195Z,3.20
2022-08-31T01:09:18.148Z,2.87
2022-08-31T01:11:47.818Z,3.00
2022-08-31T01:14:17.532Z,2.73
2022-08-31T01:16:50.999Z,2.50
2022-08-31T01:19:31.496Z,3.23
2022-08-31T01:22:12.500Z,2.60
2022-08-31T01:24:47.738Z,3.30
2022-08-31T01:27:21.070Z,2.97
2022-08-31T01:29:49.510Z,2.73
2022-08-31T01:32:18.148Z,3.10
2022-08-31T01:34:46.966Z,3.30
2022-08-31T01:37:16.554Z,2.97
2022-08-31T01:39:46.478Z,3.10
2022-08-31T01:42:15.666Z,3.07
2022-08-31T01:44:44.275Z,3.37
2022-08-31T01:47:13.351Z,2.70
2022-08-31T01:49:41.992Z,2.87
2022-08-31T01:52:13.797Z,3.30
2022-08-31T01:54:42.204Z,2.57
2022-08-31T01:57:12.531Z,2.60
2022-08-31T01:59:41.127Z,2.90
2022-08-31T02:02:09.741Z,3.10
2022-08-31T02:04:39.436Z,2.30
2022-08-31T02:07:08.306Z,2.53
2022-08-31T02:09:38.300Z,3.30
2022-08-31T02:12:09.291Z,3.13
2022-08-31T02:14:43.296Z,3.23
2022-08-31T02:17:14.605Z,3.17
2022-08-31T02:19:43.305Z,3.00
2022-08-31T02:22:12.406Z,2.90
2022-08-31T02:24:41.042Z,2.63
2022-08-31T02:27:09.909Z,2.60
2022-08-31T02:29:39.211Z,2.97
2022-08-31T02:32:09.384Z,3.27
2022-08-31T02:34:48.459Z,2.70
2022-08-31T02:37:17.515Z,2.90
2022-08-31T02:39:50.170Z,2.90
2022-08-31T02:42:18.805Z,2.87
2022-08-31T02:44:47.853Z,3.00
2022-08-31T02:47:18.967Z,3.00
2022-08-31T02:49:47.480Z,2.90
2022-08-31T02:52:17.291Z,3.40
2022-08-31T02:54:45.897Z,3.13
2022-08-31T02:57:14.939Z,3.93
2022-08-31T02:59:43.822Z,3.30
2022-08-31T03:02:12.606Z,3.07
2022-08-31T03:04:43.361Z,3.77
2022-08-31T03:07:13.139Z,4.00
2022-08-31T03:09:43.612Z,3.10
2022-08-31T03:12:13.240Z,3.40
2022-08-31T03:14:42.923Z,3.00
2022-08-31T03:17:12.219Z,3.23
2022-08-31T03:19:42.589Z,3.80
2022-08-31T03:22:13.481Z,12.90
2022-08-31T03:24:44.771Z,6.50
2022-08-31T03:27:14.770Z,3.90
2022-08-31T03:29:44.184Z,3.40
2022-08-31T03:32:12.836Z,3.93
2022-08-31T03:34:43.295Z,3.37
2022-08-31T03:37:12.821Z,4.10
2022-08-31T03:39:41.870Z,4.10
2022-08-31T03:42:10.482Z,4.30
2022-08-31T03:44:38.988Z,3.60
2022-08-31T03:47:08.188Z,3.63
2022-08-31T03:49:38.398Z,3.70
2022-08-31T03:52:08.631Z,4.30
2022-08-31T03:54:37.483Z,3.20
2022-08-31T03:57:06.572Z,3.57
2022-08-31T03:59:35.519Z,3.70
2022-08-31T04:02:04.692Z,4.47
2022-08-31T04:04:35.024Z,4.00
2022-08-31T04:07:03.652Z,3.60
2022-08-31T04:09:33.750Z,4.57
2022-08-31T04:12:02.696Z,3.87
2022-08-31T04:14:32.077Z,3.53
2022-08-31T04:17:00.918Z,4.07
2022-08-31T04:19:31.538Z,3.83
2022-08-31T04:22:00.680Z,3.77
2022-08-31T04:24:29.504Z,3.97
2022-08-31T04:27:01.266Z,4.75
2022-08-31T04:29:30.245Z,4.30
2022-08-31T04:31:58.874Z,5.20
2022-08-31T04:34:27.521Z,4.97
2022-08-31T04:36:56.757Z,4.27
2022-08-31T04:39:26.170Z,4.40
2022-08-31T04:42:02.272Z,4.70
2022-08-31T04:44:31.139Z,3.97
2022-08-31T04:47:00.181Z,4.43
2022-08-31T04:49:30.087Z,4.80
2022-08-31T04:52:00.216Z,4.20
2022-08-31T04:54:31.754Z,4.10
2022-08-31T04:57:01.626Z,4.47
2022-08-31T04:59:30.282Z,4.30
2022-08-31T05:01:59.033Z,3.73
2022-08-31T05:04:29.256Z,4.37
2022-08-31T05:06:58.250Z,3.97
2022-08-31T05:09:27.258Z,4.90
2022-08-31T05:11:58.727Z,4.67
2022-08-31T05:14:29.688Z,4.43
2022-08-31T05:17:01.450Z,3.87
2022-08-31T05:19:31.322Z,4.87
2022-08-31T05:21:59.989Z,5.33
2022-08-31T05:24:28.682Z,4.33
2022-08-31T05:26:58.329Z,5.03
2022-08-31T05:29:30.197Z,5.03
2022-08-31T05:31:58.709Z,5.00
2022-08-31T05:34:27.554Z,5.20
2022-08-31T05:36:57.922Z,5.03
2022-08-31T05:39:27.248Z,4.73
2022-08-31T05:41:56.179Z,5.30
2022-08-31T05:44:29.200Z,5.20
2022-08-31T05:47:15.187Z,5.47
2022-08-31T05:49:45.792Z,5.83
2022-08-31T05:52:15.668Z,4.97
2022-08-31T05:54:44.783Z,5.20
2022-08-31T05:57:13.914Z,4.87
2022-08-31T05:59:42.493Z,4.67
2022-08-31T06:02:15.049Z,5.30
2022-08-31T06:04:45.665Z,5.60
2022-08-31T06:07:14.313Z,5.70
2022-08-31T06:09:43.036Z,5.23
2022-08-31T06:12:11.714Z,6.00
2022-08-31T06:14:44.785Z,5.50
2022-08-31T06:17:17.515Z,4.60
2022-08-31T06:19:48.428Z,5.83
2022-08-31T06:22:17.619Z,4.97
2022-08-31T06:24:46.158Z,4.70
2022-08-31T06:27:14.748Z,5.00
2022-08-31T06:29:43.247Z,4.73
2022-08-31T06:32:14.103Z,5.00
2022-08-31T06:34:43.891Z,5.97
2022-08-31T06:37:18.966Z,5.00
2022-08-31T06:39:49.066Z,4.73
2022-08-31T06:42:17.837Z,5.57
2022-08-31T06:44:46.602Z,4.70
2022-08-31T06:47:15.593Z,4.80
2022-08-31T06:49:44.938Z,5.63
2022-08-31T06:52:16.296Z,5.97
2022-08-31T06:54:44.788Z,4.97
2022-08-31T06:57:13.352Z,5.67
2022-08-31T06:59:41.980Z,5.50
2022-08-31T07:02:10.887Z,6.10
2022-08-31T07:04:41.043Z,5.57
2022-08-31T07:07:12.425Z,5.60
2022-08-31T07:09:44.006Z,5.33
2022-08-31T07:12:13.074Z,5.83
2022-08-31T07:14:42.092Z,5.17
2022-08-31T07:17:19.681Z,5.20
2022-08-31T07:19:48.329Z,5.30
2022-08-31T07:22:17.988Z,5.27
2022-08-31T07:24:48.166Z,4.90
2022-08-31T07:27:18.639Z,5.40
2022-08-31T07:29:47.903Z,4.83
2022-08-31T07:32:18.594Z,4.40
2022-08-31T07:34:51.775Z,4.63
2022-08-31T07:37:41.660Z,5.20
2022-08-31T07:40:30.212Z,5.20
2022-08-31T07:43:04.674Z,6.30
2022-08-31T07:45:37.306Z,4.73
2022-08-31T07:48:08.337Z,5.37
2022-08-31T07:50:44.912Z,5.13
2022-08-31T07:53:14.857Z,5.43
2022-08-31T07:55:47.932Z,4.90
2022-08-31T07:58:17.517Z,5.70
2022-08-31T08:00:47.842Z,5.60
2022-08-31T08:03:17.241Z,4.70
2022-08-31T08:05:47.503Z,5.17
2022-08-31T08:08:17.072Z,5.37
2022-08-31T08:10:52.393Z,5.60
2022-08-31T08:13:23.341Z,5.13
2022-08-31T08:15:52.713Z,5.17
2022-08-31T08:18:22.761Z,4.63
2022-08-31T08:20:53.634Z,4.03
2022-08-31T08:23:28.173Z,4.77
2022-08-31T08:26:01.603Z,5.27
2022-08-31T08:28:41.030Z,4.90
2022-08-31T08:31:19.290Z,4.90
2022-08-31T08:33:48.177Z,5.70
2022-08-31T08:36:18.353Z,5.00
2022-08-31T08:38:51.191Z,4.87
2022-08-31T08:41:26.387Z,5.43
2022-08-31T08:44:00.886Z,5.20
2022-08-31T08:46:41.058Z,4.80
2022-08-31T08:49:21.099Z,4.93
2022-08-31T08:51:57.628Z,6.00
2022-08-31T08:54:33.994Z,4.70
2022-08-31T08:57:13.660Z,5.17
2022-08-31T08:59:44.433Z,5.70
2022-08-31T09:02:20.356Z,5.17
2022-08-31T09:05:16.053Z,5.00
2022-08-31T09:08:18.191Z,4.77
2022-08-31T09:11:02.341Z,4.60
2022-08-31T09:13:45.085Z,4.40
2022-08-31T09:16:29.238Z,4.40
2022-08-31T09:19:06.123Z,4.63
2022-08-31T09:21:43.623Z,4.43
2022-08-31T09:24:17.128Z,3.73
2022-08-31T09:27:05.370Z,4.70
2022-08-31T09:29:35.506Z,4.70
2022-08-31T09:32:10.001Z,4.40
2022-08-31T09:34:42.303Z,5.37
2022-08-31T09:37:22.716Z,4.60
2022-08-31T09:39:55.001Z,6.10
2022-08-31T09:42:33.740Z,4.70
2022-08-31T09:45:11.759Z,4.30
2022-08-31T09:47:51.358Z,4.80
2022-08-31T09:50:33.466Z,4.60
2022-08-31T09:53:47.688Z,4.70
2022-08-31T09:56:21.089Z,4.47
2022-08-31T09:58:53.223Z,4.30
2022-08-31T10:01:39.406Z,5.50
2022-08-31T10:04:21.179Z,4.73
2022-08-31T10:07:01.853Z,4.47
2022-08-31T10:09:38.576Z,4.23
2022-08-31T10:12:15.335Z,4.07
2022-08-31T10:14:54.239Z,5.10
2022-08-31T10:17:32.553Z,4.63
2022-08-31T10:20:09.073Z,4.23
2022-08-31T10:22:43.112Z,4.60
2022-08-31T10:25:33.210Z,4.73
2022-08-31T10:28:12.429Z,4.53
2022-08-31T10:30:51.509Z,4.53
2022-08-31T10:33:47.974Z,4.10
2022-08-31T10:36:18.053Z,4.20
2022-08-31T10:38:50.737Z,4.43
2022-08-31T10:41:29.079Z,4.13
2022-08-31T10:44:08.246Z,5.03
2022-08-31T10:46:37.286Z,4.30
2022-08-31T10:49:08.454Z,4.43
2022-08-31T10:51:53.246Z,5.13
2022-08-31T10:54:40.348Z,5.17
2022-08-31T10:57:32.860Z,5.67
2022-08-31T11:00:08.749Z,4.53
2022-08-31T11:02:59.117Z,5.50
2022-08-31T11:05:38.424Z,4.70
2022-08-31T11:08:36.559Z,5.47
2022-08-31T11:11:16.268Z,4.63
2022-08-31T11:14:26.023Z,4.47
2022-08-31T11:17:22.981Z,4.47
2022-08-31T11:20:41.563Z,5.17
2022-08-31T11:23:45.006Z,4.43
2022-08-31T11:26:52.951Z,4.13
2022-08-31T11:29:43.286Z,4.50
2022-08-31T11:32:25.354Z,4.90
2022-08-31T11:34:57.716Z,4.43
2022-08-31T11:37:57.854Z,4.27
2022-08-31T11:41:12.322Z,5.10
2022-08-31T11:43:52.460Z,4.77
2022-08-31T11:46:50.714Z,4.23
2022-08-31T11:49:40.192Z,4.93
2022-08-31T11:52:43.477Z,4.73
2022-08-31T11:55:27.168Z,4.90
2022-08-31T11:58:27.178Z,5.30
2022-08-31T12:01:03.774Z,4.90
2022-08-31T12:03:53.319Z,5.13
2022-08-31T12:07:08.988Z,4.90
2022-08-31T12:10:01.725Z,4.73
2022-08-31T12:13:06.196Z,4.53
2022-08-31T12:16:01.218Z,5.63
2022-08-31T12:18:51.751Z,4.87
2022-08-31T12:22:05.954Z,5.17
2022-08-31T12:24:49.509Z,4.80
2022-08-31T12:27:36.234Z,5.20
2022-08-31T12:30:23.392Z,4.50
2022-08-31T12:33:04.886Z,5.17
2022-08-31T12:35:35.324Z,5.00
2022-08-31T12:38:07.627Z,4.00
2022-08-31T12:40:45.096Z,4.00
2022-08-31T12:43:20.054Z,4.20
2022-08-31T12:46:30.223Z,4.20
2022-08-31T12:49:22.935Z,4.67
2022-08-31T12:52:01.109Z,4.00
2022-08-31T12:55:14.335Z,4.60
2022-08-31T12:58:03.166Z,5.23
2022-08-31T13:00:35.335Z,4.17
2022-08-31T13:03:21.117Z,3.67
2022-08-31T13:06:08.322Z,4.53
2022-08-31T13:08:43.079Z,4.27
2022-08-31T13:11:35.173Z,3.80
2022-08-31T13:14:18.359Z,3.93
2022-08-31T13:16:50.855Z,4.13
2022-08-31T13:19:26.527Z,3.93
2022-08-31T13:21:59.973Z,3.90
2022-08-31T13:24:31.785Z,2.97
2022-08-31T13:27:19.075Z,3.97
2022-08-31T13:29:50.080Z,3.40
2022-08-31T13:32:34.151Z,4.20
2022-08-31T13:35:10.525Z,3.87
2022-08-31T13:38:02.628Z,4.10
2022-08-31T13:40:35.561Z,3.17
2022-08-31T13:43:07.807Z,3.50
2022-08-31T13:45:58.231Z,3.63
2022-08-31T13:48:33.759Z,3.03
2022-08-31T13:51:13.089Z,3.57
2022-08-31T13:53:46.696Z,3.70
2022-08-31T13:56:53.589Z,3.40
2022-08-31T13:59:38.657Z,3.23
2022-08-31T14:02:37.444Z,3.83
2022-08-31T14:05:13.012Z,3.23
2022-08-31T14:08:02.355Z,3.50
2022-08-31T14:10:38.908Z,3.13
2022-08-31T14:13:19.427Z,3.43
2022-08-31T14:15:54.199Z,3.60
2022-08-31T14:18:29.476Z,3.43
2022-08-31T14:21:22.737Z,2.90
2022-08-31T14:24:01.689Z,2.80
2022-08-31T14:26:34.675Z,3.10
2022-08-31T14:29:10.704Z,3.10
2022-08-31T14:31:52.255Z,3.77
2022-08-31T14:34:28.889Z,3.37
2022-08-31T14:37:04.097Z,3.30
2022-08-31T14:39:37.759Z,3.60
2022-08-31T14:42:11.516Z,3.73
2022-08-31T14:44:44.824Z,3.00
2022-08-31T14:47:13.679Z,3.60
2022-08-31T14:49:46.249Z,3.57
2022-08-31T14:52:16.187Z,3.20
2022-08-31T14:54:47.821Z,3.33
2022-08-31T14:57:25.145Z,3.77
2022-08-31T14:59:58.287Z,3.60
2022-08-31T15:02:31.263Z,3.80
2022-08-31T15:05:01.331Z,3.53
2022-08-31T15:07:32.279Z,3.20
2022-08-31T15:10:03.394Z,2.70
2022-08-31T15:12:32.033Z,2.43
2022-08-31T15:15:01.002Z,2.87
2022-08-31T15:17:34.327Z,3.00
2022-08-31T15:20:03.676Z,2.90
2022-08-31T15:22:35.240Z,2.40
2022-08-31T15:25:06.990Z,2.37
2022-08-31T15:27:36.502Z,2.53
2022-08-31T15:30:08.723Z,2.50
2022-08-31T15:32:40.070Z,2.30
2022-08-31T15:35:09.935Z,2.20
2022-08-31T15:37:40.193Z,1.93
2022-08-31T15:40:11.935Z,2.63
2022-08-31T15:42:43.685Z,2.53
2022-08-31T15:45:12.684Z,2.10
2022-08-31T15:47:59.537Z,2.87
2022-08-31T15:50:32.128Z,2.83
2022-08-31T15:53:09.483Z,2.87
2022-08-31T15:55:41.446Z,2.40
2022-08-31T15:58:12.080Z,2.43
2022-08-31T16:00:42.777Z,2.53
2022-08-31T16:03:12.686Z,2.67
2022-08-31T16:05:43.621Z,3.30
2022-08-31T16:08:14.428Z,2.67
2022-08-31T16:10:48.187Z,2.50
2022-08-31T16:13:17.767Z,2.60
2022-08-31T16:15:53.185Z,2.87
2022-08-31T16:18:23.682Z,2.50
2022-08-31T16:20:52.415Z,2.90
2022-08-31T16:23:24.928Z,2.70
2022-08-31T16:25:55.766Z,3.20
2022-08-31T16:28:24.379Z,3.30
2022-08-31T16:30:53.144Z,3.50
2022-08-31T16:33:21.977Z,3.30
2022-08-31T16:35:51.384Z,7.23
2022-08-31T16:38:20.679Z,3.10
2022-08-31T16:40:50.168Z,4.07
2022-08-31T16:43:20.710Z,3.40
2022-08-31T16:45:49.840Z,4.20
2022-08-31T16:48:35.742Z,3.70
2022-08-31T16:51:05.144Z,3.77
2022-08-31T16:53:34.066Z,3.27
2022-08-31T16:56:04.874Z,3.40
2022-08-31T16:58:51.188Z,3.70
2022-08-31T17:01:25.555Z,4.67
2022-08-31T17:03:57.004Z,3.67
2022-08-31T17:06:27.695Z,3.23
2022-08-31T17:08:57.868Z,3.27
2022-08-31T17:11:32.262Z,3.37
2022-08-31T17:14:07.157Z,3.83
2022-08-31T17:16:38.852Z,3.50
2022-08-31T17:19:11.680Z,3.77
2022-08-31T17:21:49.554Z,3.17
2022-08-31T17:24:23.553Z,3.47
2022-08-31T17:26:54.488Z,3.13
2022-08-31T17:29:26.874Z,3.67
2022-08-31T17:31:59.404Z,5.80
2022-08-31T17:34:33.793Z,3.07
2022-08-31T17:37:06.501Z,3.40
2022-08-31T17:39:35.403Z,3.30
2022-08-31T17:42:04.196Z,3.30
2022-08-31T17:44:34.711Z,3.03
2022-08-31T17:47:05.233Z,2.90
2022-08-31T17:49:37.874Z,2.83
2022-08-31T17:52:08.550Z,2.63
2022-08-31T17:54:43.796Z,3.37
2022-08-31T17:57:15.396Z,3.80
2022-08-31T17:59:48.828Z,3.30
2022-08-31T18:02:22.306Z,5.03
2022-08-31T18:04:52.700Z,4.00
2022-08-31T18:07:22.228Z,5.37
2022-08-31T18:09:51.320Z,3.30
2022-08-31T18:12:22.212Z,3.77
2022-08-31T18:14:53.711Z,3.27
2022-08-31T18:17:23.352Z,3.20
2022-08-31T18:19:52.023Z,3.60
2022-08-31T18:22:22.091Z,3.53
2022-08-31T18:24:50.735Z,4.23
2022-08-31T18:27:20.239Z,3.50
2022-08-31T18:29:49.067Z,4.43
2022-08-31T18:32:19.059Z,3.97
2022-08-31T18:34:52.060Z,3.40
2022-08-31T18:37:25.716Z,3.97
2022-08-31T18:40:12.193Z,3.50
2022-08-31T18:42:58.569Z,4.13
2022-08-31T18:45:29.357Z,4.07
2022-08-31T18:50:52.175Z,4.30
2022-08-31T18:53:29.574Z,3.40
2022-08-31T18:56:07.437Z,3.67
2022-08-31T18:58:36.895Z,3.50
2022-08-31T19:01:11.140Z,3.43
2022-08-31T19:03:42.585Z,3.77
2022-08-31T19:06:19.423Z,4.17
2022-08-31T19:08:48.457Z,3.77
2022-08-31T19:11:19.170Z,4.10
2022-08-31T19:13:51.140Z,3.87
2022-08-31T19:16:23.993Z,4.27
2022-08-31T19:18:56.071Z,4.17
2022-08-31T19:21:29.050Z,3.60
2022-08-31T19:24:00.222Z,5.10
2022-08-31T19:26:33.435Z,4.10
2022-08-31T19:29:03.108Z,4.20
2022-08-31T19:31:32.129Z,3.90
2022-08-31T19:34:02.175Z,3.90
2022-08-31T19:36:35.557Z,3.93
2022-08-31T19:39:05.350Z,3.70
2022-08-31T19:41:34.815Z,4.60
2022-08-31T19:44:08.524Z,4.03
2022-08-31T19:46:39.868Z,3.33
2022-08-31T19:49:11.571Z,4.27
2022-08-31T19:51:43.876Z,4.50
2022-08-31T19:54:13.001Z,4.03
2022-08-31T19:56:43.807Z,4.10
2022-08-31T19:59:18.327Z,4.27
2022-08-31T20:01:49.979Z,4.10
2022-08-31T20:04:21.736Z,4.17
2022-08-31T20:06:52.502Z,3.80
2022-08-31T20:09:24.446Z,4.87
2022-08-31T20:12:00.562Z,3.90
2022-08-31T20:14:29.497Z,3.87
2022-08-31T20:16:59.510Z,4.10
2022-08-31T20:19:36.755Z,4.00
2022-08-31T20:22:08.003Z,4.10
2022-08-31T20:24:43.968Z,4.17
2022-08-31T20:27:16.448Z,3.90
2022-08-31T20:29:48.165Z,4.37
2022-08-31T20:32:17.167Z,4.63
2022-08-31T20:34:49.819Z,4.20
2022-08-31T20:37:18.927Z,4.80
2022-08-31T20:39:47.485Z,4.00
2022-08-31T20:42:16.093Z,4.30
2022-08-31T20:44:48.880Z,4.33
2022-08-31T20:47:35.322Z,4.47
2022-08-31T20:50:11.616Z,4.10
2022-08-31T20:52:40.708Z,4.90
2022-08-31T20:55:12.545Z,4.30
2022-08-31T20:57:41.771Z,4.77
2022-08-31T21:00:12.836Z,3.90
2022-08-31T21:02:41.469Z,3.47
2022-08-31T21:05:37.440Z,4.40
2022-08-31T21:08:05.689Z,4.83
2022-08-31T21:10:39.344Z,4.07
2022-08-31T21:13:12.069Z,4.10
2022-08-31T21:15:46.921Z,4.00
2022-08-31T21:18:17.440Z,3.97
2022-08-31T21:20:49.090Z,4.43
2022-08-31T21:23:18.507Z,3.50
2022-08-31T21:25:47.879Z,4.17
2022-08-31T21:28:18.881Z,3.83
2022-08-31T21:30:50.301Z,4.30
2022-08-31T21:33:20.418Z,4.00
2022-08-31T21:35:50.406Z,4.10
2022-08-31T21:38:19.101Z,4.20
2022-08-31T21:40:51.631Z,5.00
2022-08-31T21:43:20.998Z,4.60
2022-08-31T21:45:55.105Z,3.80
2022-08-31T21:48:26.169Z,4.70
2022-08-31T21:50:56.647Z,3.97
2022-08-31T21:53:27.338Z,5.20
2022-08-31T21:55:56.302Z,4.00
2022-08-31T21:58:24.802Z,4.53
2022-08-31T22:00:55.465Z,4.57
2022-08-31T22:03:25.140Z,3.67
2022-08-31T22:05:55.328Z,5.00
2022-08-31T22:08:27.105Z,4.43
2022-08-31T22:10:55.727Z,3.73
2022-08-31T22:13:24.327Z,4.60
2022-08-31T22:15:53.809Z,4.37
2022-08-31T22:18:59.614Z,4.83
2022-08-31T22:21:20.597Z,4.00
2022-08-31T22:23:52.437Z,3.80
2022-08-31T22:26:24.193Z,4.53
2022-08-31T22:28:53.245Z,4.47
2022-08-31T22:31:25.570Z,4.27
2022-08-31T22:33:54.536Z,4.30
2022-08-31T22:36:31.896Z,4.60
2022-08-31T22:39:03.238Z,3.60
2022-08-31T22:41:32.996Z,4.57
2022-08-31T22:44:01.971Z,3.83
2022-08-31T22:46:31.397Z,3.83
2022-08-31T22:49:00.601Z,4.80
2022-08-31T22:51:31.101Z,4.23
2022-08-31T22:54:00.938Z,4.13
2022-08-31T22:56:33.128Z,4.20
2022-08-31T22:59:06.301Z,4.50
2022-08-31T23:01:39.461Z,4.80
2022-08-31T23:04:11.976Z,4.50
2022-08-31T23:06:42.559Z,4.30
2022-08-31T23:09:12.645Z,4.10
2022-08-31T23:11:41.959Z,4.20
2022-08-31T23:14:11.588Z,4.50
2022-08-31T23:16:44.493Z,4.40
2022-08-31T23:19:16.731Z,4.23
2022-08-31T23:21:52.747Z,4.93
2022-08-31T23:24:29.745Z,4.13
2022-08-31T23:27:04.670Z,4.13
2022-08-31T23:29:36.267Z,4.30
2022-08-31T23:32:05.341Z,4.50
2022-08-31T23:34:38.604Z,4.40
2022-08-31T23:37:10.513Z,5.17
2022-08-31T23:39:43.620Z,4.80
2022-08-31T23:42:15.476Z,4.53
2022-08-31T23:44:47.096Z,4.80
2022-08-31T23:47:20.286Z,4.23
2022-08-31T23:49:51.944Z,4.80
2022-08-31T23:52:25.884Z,4.10
2022-08-31T23:55:00.528Z,5.17
2022-08-31T23:57:32.264Z,4.70
